createdAt,value
2022-08-19T00:01:37.939Z,21.85
2022-08-19T00:04:10.138Z,21.84
2022-08-19T00:06:39.540Z,21.88
2022-08-19T00:09:09.790Z,21.83
2022-08-19T00:11:38.436Z,21.89
2022-08-19T00:14:10.736Z,21.89
2022-08-19T00:16:39.604Z,21.65
2022-08-19T00:19:06.751Z,21.74
2022-08-19T00:21:33.287Z,21.73
2022-08-19T00:24:00.491Z,21.61
2022-08-19T00:26:29.274Z,21.45
2022-08-19T00:28:56.380Z,21.43
2022-08-19T00:31:23.288Z,21.39
2022-08-19T00:33:52.343Z,21.35
2022-08-19T00:36:18.836Z,21.32
2022-08-19T00:38:45.511Z,21.37
2022-08-19T00:41:18.943Z,21.30
2022-08-19T00:44:07.736Z,21.41
2022-08-19T00:46:37.554Z,21.37
2022-08-19T00:49:10.714Z,21.29
2022-08-19T00:51:37.726Z,21.31
2022-08-19T00:54:04.672Z,21.25
2022-08-19T00:56:32.144Z,21.25
2022-08-19T00:59:00.391Z,21.17
2022-08-19T01:01:27.297Z,21.11
2022-08-19T01:03:56.784Z,21.25
2022-08-19T01:06:25.213Z,21.23
2022-08-19T01:08:51.992Z,21.21
2022-08-19T01:11:18.615Z,21.15
2022-08-19T01:13:49.783Z,20.93
2022-08-19T01:16:18.587Z,20.80
2022-08-19T01:18:45.367Z,20.87
2022-08-19T01:21:22.813Z,21.00
2022-08-19T01:23:49.479Z,21.03
2022-08-19T01:26:20.048Z,20.95
2022-08-19T01:28:48.675Z,20.80
2022-08-19T01:34:01.547Z,20.86
2022-08-19T01:36:32.606Z,20.84
2022-08-19T01:39:00.709Z,20.79
2022-08-19T01:41:27.490Z,20.76
2022-08-19T01:44:13.886Z,20.50
2022-08-19T01:46:41.835Z,20.67
2022-08-19T01:49:08.934Z,20.73
2022-08-19T01:51:39.929Z,20.64
2022-08-19T01:54:07.823Z,20.68
2022-08-19T01:56:34.333Z,20.65
2022-08-19T01:59:04.409Z,20.49
2022-08-19T02:01:35.722Z,20.53
2022-08-19T02:04:03.061Z,20.57
2022-08-19T02:06:29.938Z,20.50
2022-08-19T02:08:57.336Z,20.63
2022-08-19T02:11:32.196Z,20.49
2022-08-19T02:13:59.917Z,20.46
2022-08-19T02:16:26.505Z,20.49
2022-08-19T02:18:53.009Z,20.36
2022-08-19T02:21:22.591Z,20.38
2022-08-19T02:23:50.097Z,20.34
2022-08-19T02:26:17.758Z,20.33
2022-08-19T02:28:44.432Z,20.35
2022-08-19T02:31:13.008Z,20.28
2022-08-19T02:33:40.001Z,20.38
2022-08-19T02:36:07.886Z,20.31
2022-08-19T02:38:34.440Z,20.31
2022-08-19T02:41:04.316Z,20.25
2022-08-19T02:43:33.781Z,20.20
2022-08-19T02:46:01.382Z,20.18
2022-08-19T02:48:27.871Z,20.19
2022-08-19T02:50:56.363Z,20.15
2022-08-19T02:53:25.686Z,20.20
2022-08-19T02:55:52.916Z,20.19
2022-08-19T02:58:20.779Z,20.11
2022-08-19T03:00:50.387Z,19.98
2022-08-19T03:03:17.761Z,20.04
2022-08-19T03:05:47.118Z,20.00
2022-08-19T03:08:22.892Z,20.00
2022-08-19T03:10:49.477Z,19.97
2022-08-19T03:13:18.526Z,19.93
2022-08-19T03:15:48.304Z,19.94
2022-08-19T03:18:15.618Z,19.84
2022-08-19T03:20:50.475Z,19.80
2022-08-19T03:23:17.711Z,19.82
2022-08-19T03:25:47.556Z,19.80
2022-08-19T03:28:29.371Z,19.81
2022-08-19T03:31:45.110Z,19.74
2022-08-19T03:33:56.125Z,19.76
2022-08-19T03:36:26.782Z,19.74
2022-08-19T03:39:00.129Z,19.70
2022-08-19T03:41:34.375Z,19.66
2022-08-19T03:44:18.019Z,19.66
2022-08-19T03:46:46.511Z,19.54
2022-08-19T03:49:14.372Z,19.59
2022-08-19T03:51:42.588Z,19.52
2022-08-19T03:54:11.444Z,19.50
2022-08-19T03:56:39.432Z,19.50
2022-08-19T03:59:08.407Z,19.47
2022-08-19T04:01:36.240Z,19.49
2022-08-19T04:04:04.859Z,19.41
2022-08-19T04:06:39.655Z,19.38
2022-08-19T04:09:09.551Z,19.33
2022-08-19T04:11:44.570Z,19.42
2022-08-19T04:14:14.947Z,19.38
2022-08-19T04:16:42.097Z,19.35
2022-08-19T04:19:08.820Z,19.33
2022-08-19T04:21:35.778Z,19.27
2022-08-19T04:24:03.832Z,19.30
2022-08-19T04:26:34.865Z,19.27
2022-08-19T04:29:09.183Z,19.26
2022-08-19T04:31:38.462Z,19.29
2022-08-19T04:34:07.603Z,19.23
2022-08-19T04:36:36.903Z,19.20
2022-08-19T04:39:08.449Z,19.22
2022-08-19T04:41:53.527Z,19.46
2022-08-19T04:44:20.413Z,19.20
2022-08-19T04:46:51.010Z,19.15
2022-08-19T04:49:23.140Z,19.15
2022-08-19T04:51:52.186Z,19.09
2022-08-19T04:54:37.080Z,18.98
2022-08-19T04:57:07.438Z,18.95
2022-08-19T04:59:34.453Z,18.98
2022-08-19T05:02:00.990Z,18.96
2022-08-19T05:04:29.037Z,18.90
2022-08-19T05:07:00.070Z,18.81
2022-08-19T05:09:55.534Z,18.79
2022-08-19T05:12:16.422Z,18.83
2022-08-19T05:14:42.911Z,18.85
2022-08-19T05:17:26.529Z,18.81
2022-08-19T05:20:26.501Z,18.77
2022-08-19T05:22:53.339Z,18.80
2022-08-19T05:25:21.423Z,18.58
2022-08-19T05:27:48.595Z,18.57
2022-08-19T05:30:15.887Z,18.51
2022-08-19T05:32:42.625Z,18.47
2022-08-19T05:35:10.404Z,18.43
2022-08-19T05:37:37.050Z,18.36
2022-08-19T05:40:04.356Z,18.33
2022-08-19T05:42:31.465Z,18.36
2022-08-19T05:44:59.026Z,18.28
2022-08-19T05:47:25.618Z,18.45
2022-08-19T05:49:52.417Z,18.37
2022-08-19T05:52:25.751Z,18.46
2022-08-19T05:54:55.752Z,18.40
2022-08-19T05:57:22.864Z,18.34
2022-08-19T05:59:53.029Z,18.41
2022-08-19T06:02:28.906Z,18.42
2022-08-19T06:04:55.451Z,18.38
2022-08-19T06:07:22.019Z,18.44
2022-08-19T06:10:00.468Z,18.33
2022-08-19T06:12:35.543Z,18.31
2022-08-19T06:15:07.970Z,18.31
2022-08-19T06:17:35.980Z,18.26
2022-08-19T06:20:05.630Z,18.28
2022-08-19T06:22:32.163Z,18.21
2022-08-19T06:24:58.785Z,18.32
2022-08-19T06:27:25.430Z,18.25
2022-08-19T06:29:51.948Z,18.31
2022-08-19T06:32:19.894Z,18.30
2022-08-19T06:34:46.574Z,18.33
2022-08-19T06:37:13.151Z,18.25
2022-08-19T06:39:41.982Z,18.26
2022-08-19T06:42:12.205Z,18.22
2022-08-19T06:44:43.269Z,18.21
2022-08-19T06:47:14.556Z,18.23
2022-08-19T06:49:49.996Z,18.26
2022-08-19T06:52:16.878Z,18.30
2022-08-19T06:54:53.708Z,18.35
2022-08-19T06:57:25.119Z,18.31
2022-08-19T06:59:52.188Z,18.41
2022-08-19T07:02:19.426Z,18.40
2022-08-19T07:04:46.844Z,18.46
2022-08-19T07:07:20.317Z,18.34
2022-08-19T07:10:00.042Z,18.38
2022-08-19T07:12:32.263Z,18.39
2022-08-19T07:14:59.060Z,18.45
2022-08-19T07:17:26.820Z,18.46
2022-08-19T07:19:54.146Z,18.43
2022-08-19T07:22:23.762Z,18.44
2022-08-19T07:24:52.135Z,18.45
2022-08-19T07:27:22.523Z,18.37
2022-08-19T07:29:57.314Z,18.42
2022-08-19T07:32:28.181Z,18.52
2022-08-19T07:34:56.361Z,18.42
2022-08-19T07:37:24.255Z,18.48
2022-08-19T07:39:50.840Z,18.51
2022-08-19T07:42:18.911Z,18.54
2022-08-19T07:44:50.330Z,18.58
2022-08-19T07:47:49.170Z,18.67
2022-08-19T07:50:07.755Z,18.61
2022-08-19T07:52:36.767Z,18.76
2022-08-19T07:55:05.268Z,18.78
2022-08-19T07:57:31.899Z,18.77
2022-08-19T07:59:58.478Z,18.77
2022-08-19T08:02:25.044Z,18.87
2022-08-19T08:05:10.482Z,18.87
2022-08-19T08:07:55.764Z,18.91
2022-08-19T08:10:24.225Z,18.90
2022-08-19T08:13:09.844Z,18.98
2022-08-19T08:15:42.582Z,19.02
2022-08-19T08:18:11.509Z,19.04
2022-08-19T08:20:39.171Z,19.10
2022-08-19T08:23:25.692Z,19.14
2022-08-19T08:25:57.933Z,19.09
2022-08-19T08:28:26.164Z,19.04
2022-08-19T08:30:56.529Z,19.10
2022-08-19T08:33:32.671Z,19.14
2022-08-19T08:35:59.952Z,19.15
2022-08-19T08:38:26.546Z,19.17
2022-08-19T08:41:07.547Z,19.15
2022-08-19T08:43:42.877Z,19.12
2022-08-19T08:46:16.238Z,19.11
2022-08-19T08:49:09.802Z,19.09
2022-08-19T08:51:59.793Z,19.18
2022-08-19T08:54:32.902Z,19.19
2022-08-19T08:57:03.281Z,19.21
2022-08-19T08:59:34.507Z,19.19
2022-08-19T09:02:01.412Z,19.28
2022-08-19T09:04:28.756Z,19.29
2022-08-19T09:07:35.396Z,19.39
2022-08-19T09:10:22.944Z,19.43
2022-08-19T09:13:16.799Z,19.51
2022-08-19T09:15:52.157Z,19.51
2022-08-19T09:18:19.643Z,19.54
2022-08-19T09:20:50.288Z,19.51
2022-08-19T09:23:16.876Z,19.49
2022-08-19T09:25:43.426Z,19.43
2022-08-19T09:28:15.166Z,19.43
2022-08-19T09:30:49.347Z,19.42
2022-08-19T09:33:17.025Z,19.49
2022-08-19T09:35:49.528Z,19.51
2022-08-19T09:38:19.571Z,19.56
2022-08-19T09:40:46.102Z,19.58
2022-08-19T09:43:13.469Z,19.55
2022-08-19T09:45:40.869Z,19.63
2022-08-19T09:48:07.446Z,19.67
2022-08-19T09:50:39.386Z,19.70
2022-08-19T09:53:19.357Z,19.79
2022-08-19T09:55:45.975Z,19.81
2022-08-19T09:58:12.877Z,19.86
2022-08-19T10:00:39.483Z,19.86
2022-08-19T10:03:05.988Z,19.96
2022-08-19T10:05:54.611Z,19.96
2022-08-19T10:08:29.019Z,19.97
2022-08-19T10:10:57.000Z,20.06
2022-08-19T10:13:29.349Z,20.19
2022-08-19T10:15:58.131Z,20.19
2022-08-19T10:18:26.119Z,20.22
2022-08-19T10:20:54.461Z,20.19
2022-08-19T10:23:21.995Z,20.15
2022-08-19T10:25:50.497Z,20.15
2022-08-19T10:28:19.509Z,20.14
2022-08-19T10:30:47.219Z,20.17
2022-08-19T10:33:14.885Z,20.16
2022-08-19T10:35:42.525Z,20.18
2022-08-19T10:38:22.903Z,20.21
2022-08-19T10:40:59.024Z,20.22
2022-08-19T10:43:25.852Z,20.25
2022-08-19T10:46:00.225Z,20.30
2022-08-19T10:48:26.812Z,20.32
2022-08-19T10:51:12.403Z,20.36
2022-08-19T10:53:50.480Z,20.44
2022-08-19T10:56:36.367Z,20.48
2022-08-19T10:59:04.232Z,20.51
2022-08-19T11:01:34.003Z,20.57
2022-08-19T11:04:02.739Z,20.63
2022-08-19T11:06:30.240Z,20.66
2022-08-19T11:08:57.528Z,20.72
2022-08-19T11:11:24.059Z,20.77
2022-08-19T11:13:51.006Z,20.80
2022-08-19T11:16:23.216Z,20.76
2022-08-19T11:18:52.589Z,20.87
2022-08-19T11:21:28.553Z,20.89
2022-08-19T11:23:58.132Z,20.95
2022-08-19T11:26:25.888Z,21.04
2022-08-19T11:28:55.015Z,21.11
2022-08-19T11:31:24.880Z,21.14
2022-08-19T11:33:58.304Z,21.25
2022-08-19T11:36:24.852Z,21.27
2022-08-19T11:38:51.703Z,21.32
2022-08-19T11:41:20.341Z,21.40
2022-08-19T11:43:47.135Z,21.40
2022-08-19T11:46:16.354Z,21.52
2022-08-19T11:48:43.555Z,21.76
2022-08-19T11:51:13.909Z,21.83
2022-08-19T11:53:40.789Z,21.94
2022-08-19T11:56:08.585Z,22.18
2022-08-19T11:58:36.023Z,22.14
2022-08-19T12:01:05.948Z,22.20
2022-08-19T12:03:32.502Z,22.22
2022-08-19T12:05:59.069Z,22.28
2022-08-19T12:08:25.560Z,22.26
2022-08-19T12:10:52.062Z,22.28
2022-08-19T12:13:19.352Z,22.32
2022-08-19T12:15:48.417Z,22.43
2022-08-19T12:18:15.309Z,22.38
2022-08-19T12:20:43.392Z,22.44
2022-08-19T12:23:10.795Z,22.62
2022-08-19T12:25:38.694Z,22.71
2022-08-19T12:28:05.263Z,22.74
2022-08-19T12:30:31.830Z,22.67
2022-08-19T12:32:58.367Z,22.88
2022-08-19T12:35:24.874Z,22.99
2022-08-19T12:37:56.775Z,23.11
2022-08-19T12:40:26.527Z,22.97
2022-08-19T12:42:54.248Z,23.02
2022-08-19T12:45:20.915Z,22.98
2022-08-19T12:47:47.731Z,22.93
2022-08-19T12:50:16.490Z,22.90
2022-08-19T12:52:43.365Z,22.87
2022-08-19T12:55:11.996Z,22.87
2022-08-19T12:57:39.042Z,22.82
2022-08-19T13:00:14.605Z,22.78
2022-08-19T13:02:45.353Z,22.73
2022-08-19T13:05:16.847Z,22.71
2022-08-19T13:07:44.795Z,22.62
2022-08-19T13:10:16.240Z,22.61
2022-08-19T13:12:43.359Z,22.71
2022-08-19T13:15:11.638Z,22.51
2022-08-19T13:17:39.551Z,22.41
2022-08-19T13:20:09.007Z,22.34
2022-08-19T13:22:36.895Z,22.30
2022-08-19T13:25:05.057Z,22.25
2022-08-19T13:27:31.659Z,22.25
2022-08-19T13:30:16.772Z,22.29
2022-08-19T13:33:01.819Z,22.28
2022-08-19T13:35:28.362Z,22.22
2022-08-19T13:37:54.978Z,22.13
2022-08-19T13:40:24.845Z,22.14
2022-08-19T13:42:55.423Z,22.11
2022-08-19T13:45:25.137Z,22.08
2022-08-19T13:47:59.160Z,22.10
2022-08-19T13:50:32.253Z,22.19
2022-08-19T13:52:59.420Z,22.18
2022-08-19T13:55:27.697Z,22.23
2022-08-19T13:57:57.407Z,22.30
2022-08-19T14:00:27.089Z,22.32
2022-08-19T14:02:56.696Z,22.34
2022-08-19T14:05:24.050Z,22.33
2022-08-19T14:07:50.633Z,22.42
2022-08-19T14:10:18.080Z,22.40
2022-08-19T14:12:44.643Z,22.48
2022-08-19T14:15:12.642Z,22.58
2022-08-19T14:17:40.776Z,22.77
2022-08-19T14:20:10.430Z,22.98
2022-08-19T14:22:40.565Z,23.08
2022-08-19T14:25:09.821Z,23.17
2022-08-19T14:27:38.065Z,23.35
2022-08-19T14:30:06.313Z,23.56
2022-08-19T14:32:32.850Z,23.48
2022-08-19T14:34:59.500Z,23.60
2022-08-19T14:37:26.248Z,23.70
2022-08-19T14:39:55.139Z,23.72
2022-08-19T14:42:21.727Z,23.71
2022-08-19T14:44:48.215Z,23.60
2022-08-19T14:47:15.043Z,23.65
2022-08-19T14:49:43.938Z,23.69
2022-08-19T14:52:14.897Z,23.67
2022-08-19T14:54:41.404Z,23.60
2022-08-19T14:57:08.184Z,23.60
2022-08-19T14:59:35.828Z,23.59
2022-08-19T15:02:33.433Z,23.68
2022-08-19T15:04:58.512Z,23.68
2022-08-19T15:07:28.290Z,23.71
2022-08-19T15:09:56.912Z,23.68
2022-08-19T15:12:23.472Z,23.66
2022-08-19T15:14:51.863Z,23.68
2022-08-19T15:17:21.819Z,23.59
2022-08-19T15:19:48.342Z,23.59
2022-08-19T15:22:15.155Z,23.60
2022-08-19T15:24:48.123Z,23.55
2022-08-19T15:27:14.821Z,23.59
2022-08-19T15:29:43.751Z,23.51
2022-08-19T15:32:10.287Z,23.51
2022-08-19T15:34:36.825Z,23.46
2022-08-19T15:37:06.100Z,23.44
2022-08-19T15:39:33.171Z,23.27
2022-08-19T15:42:00.628Z,23.00
2022-08-19T15:44:27.858Z,22.89
2022-08-19T15:46:54.437Z,22.90
2022-08-19T15:49:21.872Z,22.84
2022-08-19T15:51:51.905Z,22.68
2022-08-19T15:54:21.705Z,22.50
2022-08-19T15:57:07.935Z,22.46
2022-08-19T15:59:54.276Z,22.41
2022-08-19T16:02:42.300Z,22.25
2022-08-19T16:05:29.763Z,22.38
2022-08-19T16:07:56.963Z,22.41
2022-08-19T16:10:26.344Z,22.45
2022-08-19T16:12:55.352Z,22.56
2022-08-19T16:15:21.983Z,22.61
2022-08-19T16:17:55.418Z,22.60
2022-08-19T16:20:27.335Z,22.68
2022-08-19T16:22:54.345Z,22.65
2022-08-19T16:25:26.488Z,22.67
2022-08-19T16:28:06.226Z,22.64
2022-08-19T16:30:35.305Z,22.71
2022-08-19T16:33:01.806Z,22.75
2022-08-19T16:35:28.384Z,22.70
2022-08-19T16:37:55.003Z,22.66
2022-08-19T16:40:22.564Z,22.67
2022-08-19T16:42:49.477Z,22.75
2022-08-19T16:45:19.437Z,22.70
2022-08-19T16:47:45.967Z,22.58
2022-08-19T16:50:12.566Z,22.51
2022-08-19T16:52:39.065Z,22.54
2022-08-19T16:55:07.434Z,22.46
2022-08-19T16:57:35.550Z,22.41
2022-08-19T17:00:08.980Z,22.49
2022-08-19T17:02:36.688Z,22.56
2022-08-19T17:05:03.323Z,22.59
2022-08-19T17:07:33.103Z,22.50
2022-08-19T17:10:01.229Z,22.46
2022-08-19T17:12:32.200Z,22.47
2022-08-19T17:15:00.673Z,22.52
2022-08-19T17:17:29.363Z,22.44
2022-08-19T17:19:56.457Z,22.38
2022-08-19T17:22:23.741Z,22.32
2022-08-19T17:24:50.252Z,22.40
2022-08-19T17:27:16.763Z,22.52
2022-08-19T17:29:46.860Z,22.42
2022-08-19T17:32:13.886Z,22.35
2022-08-19T17:34:40.383Z,22.43
2022-08-19T17:37:06.890Z,22.46
2022-08-19T17:39:39.513Z,22.30
2022-08-19T17:42:06.756Z,22.36
2022-08-19T17:44:36.450Z,22.47
2022-08-19T17:47:04.156Z,22.42
2022-08-19T17:49:30.671Z,22.40
2022-08-19T17:52:00.471Z,22.45
2022-08-19T17:54:33.348Z,22.43
2022-08-19T17:57:01.245Z,22.40
2022-08-19T17:59:29.921Z,22.44
2022-08-19T18:01:57.169Z,22.46
2022-08-19T18:04:25.850Z,22.49
2022-08-19T18:06:55.019Z,22.46
2022-08-19T18:09:27.275Z,22.41
2022-08-19T18:11:56.852Z,22.32
2022-08-19T18:14:32.829Z,22.20
2022-08-19T18:17:05.864Z,22.15
2022-08-19T18:19:42.252Z,22.12
2022-08-19T18:22:11.589Z,22.19
2022-08-19T18:24:42.292Z,22.01
2022-08-19T18:27:09.836Z,22.07
2022-08-19T18:29:37.930Z,22.07
2022-08-19T18:32:04.674Z,21.98
2022-08-19T18:34:31.174Z,22.08
2022-08-19T18:36:57.683Z,21.95
2022-08-19T18:39:45.085Z,21.88
2022-08-19T18:42:37.012Z,21.86
2022-08-19T18:45:23.797Z,21.89
2022-08-19T18:48:26.933Z,21.80
2022-08-19T18:50:59.779Z,21.70
2022-08-19T18:53:28.679Z,21.78
2022-08-19T18:55:55.798Z,21.79
2022-08-19T18:58:26.634Z,21.82
2022-08-19T19:00:56.769Z,21.74
2022-08-19T19:03:24.345Z,21.57
2022-08-19T19:05:52.138Z,21.64
2022-08-19T19:08:18.765Z,21.63
2022-08-19T19:10:45.385Z,21.63
2022-08-19T19:13:16.319Z,21.56
2022-08-19T19:15:43.899Z,21.56
2022-08-19T19:18:13.451Z,21.58
2022-08-19T19:20:40.884Z,21.60
2022-08-19T19:23:07.635Z,21.54
2022-08-19T19:25:49.928Z,21.62
2022-08-19T19:28:17.423Z,21.56
2022-08-19T19:30:43.964Z,21.48
2022-08-19T19:33:10.812Z,21.36
2022-08-19T19:35:37.317Z,21.30
2022-08-19T19:38:03.874Z,21.37
2022-08-19T19:40:30.458Z,21.34
2022-08-19T19:42:57.077Z,21.37
2022-08-19T19:45:24.785Z,21.43
2022-08-19T19:47:51.322Z,21.29
2022-08-19T19:50:19.395Z,21.43
2022-08-19T19:52:46.622Z,21.24
2022-08-19T19:55:17.885Z,21.33
2022-08-19T19:57:48.871Z,21.39
2022-08-19T20:00:18.643Z,21.43
2022-08-19T20:02:49.612Z,21.50
2022-08-19T20:05:16.966Z,21.44
2022-08-19T20:08:02.023Z,21.43
2022-08-19T20:10:28.538Z,21.39
2022-08-19T20:12:56.684Z,21.45
2022-08-19T20:15:24.064Z,21.45
2022-08-19T20:17:51.025Z,21.43
2022-08-19T20:20:19.159Z,21.49
2022-08-19T20:22:47.496Z,21.46
2022-08-19T20:25:16.987Z,21.46
2022-08-19T20:27:44.050Z,21.48
2022-08-19T20:30:19.318Z,21.50
2022-08-19T20:32:47.620Z,21.50
2022-08-19T20:35:19.701Z,21.46
2022-08-19T20:37:46.558Z,21.48
2022-08-19T20:40:14.510Z,21.53
2022-08-19T20:42:43.213Z,21.52
2022-08-19T20:45:29.449Z,21.52
2022-08-19T20:48:02.653Z,21.52
2022-08-19T20:50:30.350Z,21.50
2022-08-19T20:52:57.821Z,21.35
2022-08-19T20:55:25.792Z,21.32
2022-08-19T20:57:52.299Z,21.28
2022-08-19T21:00:19.120Z,21.32
2022-08-19T21:02:46.796Z,21.30
2022-08-19T21:05:14.835Z,21.31
2022-08-19T21:07:41.547Z,21.25
2022-08-19T21:10:08.363Z,21.26
2022-08-19T21:12:35.008Z,21.23
2022-08-19T21:15:01.592Z,21.29
2022-08-19T21:17:28.092Z,21.33
2022-08-19T21:19:54.618Z,21.26
2022-08-19T21:22:21.196Z,21.17
2022-08-19T21:24:47.867Z,21.20
2022-08-19T21:27:14.367Z,21.16
2022-08-19T21:29:42.056Z,21.13
2022-08-19T21:32:11.112Z,21.16
2022-08-19T21:34:41.641Z,21.13
2022-08-19T21:37:14.002Z,21.10
2022-08-19T21:39:53.483Z,21.09
2022-08-19T21:42:20.920Z,20.97
2022-08-19T21:44:47.547Z,21.00
2022-08-19T21:47:14.052Z,21.06
2022-08-19T21:49:40.686Z,20.98
2022-08-19T21:52:08.152Z,21.10
2022-08-19T21:54:38.250Z,21.05
2022-08-19T21:57:10.263Z,20.96
2022-08-19T21:59:39.794Z,20.95
2022-08-19T22:02:19.565Z,20.98
2022-08-19T22:04:48.449Z,20.88
2022-08-19T22:07:15.499Z,20.84
2022-08-19T22:09:42.905Z,20.87
2022-08-19T22:12:20.909Z,20.86
2022-08-19T22:14:47.419Z,20.78
2022-08-19T22:17:14.584Z,20.77
2022-08-19T22:19:41.277Z,20.89
2022-08-19T22:22:08.165Z,20.89
2022-08-19T22:24:34.688Z,20.79
2022-08-19T22:27:02.311Z,20.82
2022-08-19T22:29:34.138Z,20.85
2022-08-19T22:32:01.504Z,20.86
2022-08-19T22:34:48.022Z,20.78
2022-08-19T22:37:14.525Z,20.85
2022-08-19T22:39:41.121Z,20.88
2022-08-19T22:42:07.726Z,20.91
2022-08-19T22:44:34.240Z,20.84
2022-08-19T22:47:02.165Z,20.84
2022-08-19T22:49:28.726Z,20.87
2022-08-19T22:52:13.772Z,20.84
2022-08-19T22:54:40.305Z,20.80
2022-08-19T22:57:06.807Z,20.59
2022-08-19T22:59:33.317Z,20.72
2022-08-19T23:01:59.842Z,20.79
2022-08-19T23:04:26.464Z,20.77
2022-08-19T23:06:53.275Z,20.71
2022-08-19T23:09:19.929Z,20.74
2022-08-19T23:11:50.065Z,20.57
2022-08-19T23:14:18.830Z,20.66
2022-08-19T23:16:50.756Z,20.56
2022-08-19T23:19:19.082Z,20.63
2022-08-19T23:21:45.583Z,20.61
2022-08-19T23:24:12.137Z,20.51
2022-08-19T23:26:59.366Z,20.65
2022-08-19T23:29:44.147Z,20.66
2022-08-19T23:32:10.653Z,20.66
2022-08-19T23:34:37.550Z,20.68
2022-08-19T23:37:04.100Z,20.67
2022-08-19T23:39:31.086Z,20.67
2022-08-19T23:41:57.571Z,20.62
2022-08-19T23:44:24.661Z,20.64
2022-08-19T23:46:55.114Z,20.60
2022-08-19T23:49:23.058Z,20.63
2022-08-19T23:51:49.620Z,20.64
2022-08-19T23:54:16.128Z,20.55
2022-08-19T23:56:42.677Z,20.56
2022-08-19T23:59:09.187Z,20.54
